Strona główna
METAR-TAF:

METAR-TAF

Lotnisko :

Barra do Garças, Mato Grosso, Brazylia

Szerokość geograficzna: 15-52S, Długość geograficzna: 052-23W, wysokość: 350 m

Aktualna obserwacja pogody

Raport powstał 13 godziny i 50 minut temu, godzina 21:00 UTC
Cisza
Temperatura 33°C
Wilgotność 59%
Ciśnienie 1013 hPa
Widzialność 10 km lub więcej
Mało chmury na wysokości 2000 ft

METAR: SBBW 022100Z 00000KT 9999 FEW020 33/24 Q1013

czas: 06:50 (10:50 UTC)

Prognoza

Raport powstał 7 godziny i 50 minut temu, godzina 03:00 UTC
Prognoza ważna od 03 godzina 06 UTC do 03 godzina 18 UTC
Wiatr kt od północ
Widzialność 10 km lub więcej
Brak chmur poniżej 1500 m i brak chmur cumulonimbus
Stopniowe zmiany
od 03 godzina 14 UTC do 03 godzina 16 UTC
Widzialność 10 km lub więcej
Rozproszone chmury na wysokości 3000 ft
Mało chmury na wysokości 4000 ft, Cumulusy wypiętrznone.

TAF: SBBW 030300Z 0306/0318 00000KT CAVOK TN24/0309Z TX32/0318Z BECMG 0314/0316 9999 SCT030 FEW040TCU RMK PDJ

Obserwacja i prognoza pogody dla ponad 4000 lotnisk (raport METAR i TAF).

Dostępne stacje oznaczono żółtymi i czerwonymi punktami na mapie.

Najedź kursorem aby zobaczyć nazwę stacji.

Kliknij aby zobaczyć obserwacje i prognozy pogody.

Aby zmienić mapę: kliknij na zielony przycisk z czarnym krzyżykiem, aby powiększyć; na zielony przycisk z myślnikiem, aby pomniejszyć; na zielone strzałki, aby przejść do map sąsiednich.


METAR-TAF: